< < Back
Terminal Aerodrome Forecast


Current Version              Previous Versions:   1  2  3  4  5  6  7  8  9  

Terminal Aerodrome Forecast

261
FTUS42 KGSP 250535
TAFCLT
TAF
KCLT 250535Z 2506/2606 00000KT P6SM SKC
     FM251700 25005KT P6SM SKC=



Latest METAR

882
SAUS70 KWBC 250600 RRD
MTRCLT
METAR KCLT 250552Z 32003KT 10SM CLR 06/04 A3001 RMK AO2 SLP160 T00560044
10139 20039 55008


USA.gov is the U.S. government's official web portal to all federal, state and local government web resources and services.